createdAt,value
2024-04-14T00:01:46.577Z,10.68
2024-04-14T00:04:15.023Z,10.69
2024-04-14T00:06:43.883Z,10.58
2024-04-14T00:09:15.758Z,10.56
2024-04-14T00:11:53.358Z,10.56
2024-04-14T00:14:43.449Z,10.56
2024-04-14T00:17:12.462Z,10.52
2024-04-14T00:19:43.799Z,10.53
2024-04-14T00:22:15.797Z,10.45
2024-04-14T00:24:44.111Z,10.47
2024-04-14T00:27:11.134Z,10.36
2024-04-14T00:29:42.823Z,10.48
2024-04-14T00:32:11.143Z,10.44
2024-04-14T00:34:39.202Z,10.46
2024-04-14T00:37:07.688Z,10.38
2024-04-14T00:39:36.073Z,10.36
2024-04-14T00:42:07.289Z,10.40
2024-04-14T00:44:50.126Z,10.34
2024-04-14T00:47:21.649Z,10.29
2024-04-14T00:49:51.392Z,10.26
2024-04-14T00:52:25.355Z,10.25
2024-04-14T00:54:53.746Z,10.22
2024-04-14T00:57:28.272Z,10.22
2024-04-14T00:59:59.028Z,10.15
2024-04-14T01:02:30.655Z,10.12
2024-04-14T01:05:01.959Z,10.09
2024-04-14T01:10:24.891Z,10.09
2024-04-14T01:12:52.868Z,10.07
2024-04-14T01:15:21.358Z,10.06
2024-04-14T01:17:51.845Z,10.05
2024-04-14T01:20:29.472Z,10.00
2024-04-14T01:22:57.876Z,9.93
2024-04-14T01:25:27.315Z,9.87
2024-04-14T01:27:55.418Z,9.87
2024-04-14T01:30:23.814Z,9.81
2024-04-14T01:32:54.998Z,9.77
2024-04-14T01:35:23.143Z,9.79
2024-04-14T01:37:51.126Z,9.74
2024-04-14T01:40:19.974Z,9.75
2024-04-14T01:42:50.133Z,9.69
2024-04-14T01:45:30.368Z,9.58
2024-04-14T01:47:58.362Z,9.50
2024-04-14T01:50:26.760Z,9.50
2024-04-14T01:52:54.757Z,9.44
2024-04-14T01:55:22.904Z,9.34
2024-04-14T01:57:54.297Z,9.28
2024-04-14T02:00:22.464Z,9.27
2024-04-14T02:02:53.813Z,9.25
2024-04-14T02:05:25.521Z,9.12
2024-04-14T02:07:56.797Z,9.10
2024-04-14T02:10:25.263Z,9.10
2024-04-14T02:12:56.156Z,9.08
2024-04-14T02:15:24.740Z,9.13
2024-04-14T02:17:55.409Z,9.11
2024-04-14T02:23:11.137Z,9.17
2024-04-14T02:25:45.606Z,9.12
2024-04-14T02:28:16.716Z,9.09
2024-04-14T02:30:44.784Z,9.12
2024-04-14T02:33:15.711Z,9.10
2024-04-14T02:35:52.343Z,9.07
2024-04-14T02:38:23.676Z,9.06
2024-04-14T02:41:01.105Z,9.05
2024-04-14T02:43:31.686Z,9.05
2024-04-14T02:46:00.051Z,9.00
2024-04-14T02:48:27.246Z,9.05
2024-04-14T02:50:57.039Z,9.06
2024-04-14T02:53:35.650Z,9.02
2024-04-14T02:56:19.433Z,8.97
2024-04-14T02:58:53.491Z,8.94
2024-04-14T03:01:25.112Z,8.85
2024-04-14T03:03:53.381Z,8.74
2024-04-14T03:06:22.818Z,8.67
2024-04-14T03:08:49.811Z,8.69
2024-04-14T03:11:27.266Z,8.70
2024-04-14T03:13:55.804Z,8.72
2024-04-14T03:16:23.742Z,8.70
2024-04-14T03:18:50.946Z,8.69
2024-04-14T03:21:20.136Z,8.67
2024-04-14T03:23:49.925Z,8.74
2024-04-14T03:26:29.307Z,8.73
2024-04-14T03:29:10.372Z,8.81
2024-04-14T03:31:40.804Z,8.84
2024-04-14T03:34:08.945Z,8.81
2024-04-14T03:36:42.970Z,8.83
2024-04-14T03:39:12.540Z,8.76
2024-04-14T03:41:39.502Z,8.66
2024-04-14T03:44:07.277Z,8.59
2024-04-14T03:46:35.590Z,8.54
2024-04-14T03:49:03.663Z,8.53
2024-04-14T03:51:31.851Z,8.50
2024-04-14T03:54:00.113Z,8.53
2024-04-14T03:56:28.488Z,8.52
2024-04-14T03:58:56.807Z,8.66
2024-04-14T04:01:24.899Z,8.62
2024-04-14T04:03:56.174Z,8.65
2024-04-14T04:06:23.277Z,8.53
2024-04-14T04:09:04.415Z,8.60
2024-04-14T04:11:41.048Z,8.66
2024-04-14T04:14:09.068Z,8.74
2024-04-14T04:16:40.030Z,8.74
2024-04-14T04:19:21.567Z,8.75
2024-04-14T04:21:55.274Z,8.77
2024-04-14T04:24:25.415Z,8.82
2024-04-14T04:26:53.900Z,8.91
2024-04-14T04:29:21.616Z,8.99
2024-04-14T04:31:49.276Z,8.91
2024-04-14T04:34:16.358Z,8.87
2024-04-14T04:37:16.290Z,9.02
2024-04-14T04:39:47.449Z,9.08
2024-04-14T04:42:15.436Z,9.11
2024-04-14T04:44:42.988Z,9.12
2024-04-14T04:47:22.252Z,9.17
2024-04-14T04:49:50.561Z,9.31
2024-04-14T04:52:19.143Z,9.35
2024-04-14T04:54:48.001Z,9.51
2024-04-14T04:57:18.169Z,9.54
2024-04-14T04:59:48.706Z,9.71
2024-04-14T05:02:18.580Z,9.76
2024-04-14T05:04:46.564Z,9.88
2024-04-14T05:07:13.440Z,10.03
2024-04-14T05:09:43.581Z,10.24
2024-04-14T05:12:11.175Z,10.56
2024-04-14T05:14:38.414Z,10.78
2024-04-14T05:17:08.972Z,11.18
2024-04-14T05:19:35.945Z,11.49
2024-04-14T05:22:03.807Z,11.79
2024-04-14T05:24:45.427Z,12.08
2024-04-14T05:27:15.306Z,12.46
2024-04-14T05:32:28.959Z,13.11
2024-04-14T05:34:57.127Z,13.42
2024-04-14T05:37:25.006Z,13.69
2024-04-14T05:39:53.158Z,13.96
2024-04-14T05:42:21.118Z,14.23
2024-04-14T05:44:59.545Z,14.45
2024-04-14T05:47:27.946Z,14.81
2024-04-14T05:49:57.163Z,15.07
2024-04-14T05:52:26.592Z,15.33
2024-04-14T05:54:54.481Z,15.49
2024-04-14T05:57:22.382Z,15.81
2024-04-14T05:59:49.990Z,15.96
2024-04-14T06:02:27.027Z,16.25
2024-04-14T06:04:57.532Z,16.55
2024-04-14T06:07:34.457Z,16.83
2024-04-14T06:10:06.631Z,17.06
2024-04-14T06:12:35.034Z,17.25
2024-04-14T06:15:03.442Z,17.43
2024-04-14T06:17:31.319Z,17.65
2024-04-14T06:20:02.521Z,17.98
2024-04-14T06:22:32.749Z,18.15
2024-04-14T06:25:01.438Z,18.45
2024-04-14T06:27:38.779Z,18.89
2024-04-14T06:32:49.924Z,19.58
2024-04-14T06:35:18.506Z,19.75
2024-04-14T06:37:46.617Z,19.93
2024-04-14T06:40:16.064Z,20.19
2024-04-14T06:45:55.860Z,20.81
2024-04-14T06:49:18.688Z,21.00
2024-04-14T06:54:45.051Z,21.68
2024-04-14T06:57:37.940Z,21.79
2024-04-14T07:00:19.884Z,22.05
2024-04-14T07:03:10.714Z,22.40
2024-04-14T07:05:41.340Z,22.76
2024-04-14T07:12:10.801Z,23.23
2024-04-14T07:15:02.866Z,23.09
2024-04-14T07:17:30.326Z,23.01
2024-04-14T07:20:22.327Z,23.30
2024-04-14T07:23:20.813Z,23.55
2024-04-14T07:28:49.593Z,23.86
2024-04-14T07:31:25.841Z,24.16
2024-04-14T07:34:19.263Z,24.22
2024-04-14T07:36:48.624Z,24.29
2024-04-14T07:40:01.314Z,24.17
2024-04-14T07:42:35.058Z,23.84
2024-04-14T07:45:03.371Z,23.94
2024-04-14T07:47:32.458Z,24.10
2024-04-14T07:50:01.819Z,24.30
2024-04-14T07:52:30.602Z,24.28
2024-04-14T07:55:01.670Z,24.22
2024-04-14T07:57:32.876Z,24.32
2024-04-14T08:00:30.934Z,24.01
2024-04-14T08:02:55.617Z,23.77
2024-04-14T08:05:24.567Z,23.77
2024-04-14T08:07:56.753Z,23.71
2024-04-14T08:10:26.229Z,23.67
2024-04-14T08:13:21.118Z,23.72
2024-04-14T08:15:49.469Z,23.81
2024-04-14T08:18:20.855Z,24.12
2024-04-14T08:20:58.583Z,24.20
2024-04-14T08:26:23.908Z,24.20
2024-04-14T08:28:52.694Z,24.49
2024-04-14T08:31:23.810Z,24.66
2024-04-14T08:33:54.222Z,24.90
2024-04-14T08:36:31.202Z,25.05
2024-04-14T08:39:00.840Z,25.28
2024-04-14T08:41:31.738Z,25.46
2024-04-14T08:44:01.292Z,25.64
2024-04-14T08:46:34.263Z,25.65
2024-04-14T08:49:16.329Z,25.86
2024-04-14T08:51:47.262Z,25.92
2024-04-14T08:54:16.069Z,26.06
2024-04-14T08:56:47.005Z,26.39
2024-04-14T08:59:28.471Z,26.47
2024-04-14T09:02:03.255Z,26.42
2024-04-14T09:04:37.290Z,26.24
2024-04-14T09:07:13.814Z,26.49
2024-04-14T09:12:40.046Z,26.82
2024-04-14T09:15:10.033Z,27.02
2024-04-14T09:17:38.843Z,26.82
2024-04-14T09:20:10.580Z,27.04
2024-04-14T09:23:04.072Z,27.13
2024-04-14T09:25:31.411Z,27.38
2024-04-14T09:28:09.161Z,27.13
2024-04-14T09:30:37.906Z,27.13
2024-04-14T09:33:07.420Z,27.27
2024-04-14T09:35:39.846Z,27.35
2024-04-14T09:38:09.141Z,27.39
2024-04-14T09:40:47.159Z,27.49
2024-04-14T09:43:19.461Z,27.54
2024-04-14T09:46:03.425Z,27.33
2024-04-14T09:48:38.915Z,27.43
2024-04-14T09:51:09.634Z,27.45
2024-04-14T09:53:46.891Z,27.53
2024-04-14T09:56:14.884Z,27.67
2024-04-14T09:58:44.202Z,27.75
2024-04-14T10:01:41.412Z,27.79
2024-04-14T10:04:12.410Z,28.02
2024-04-14T10:06:44.598Z,27.81
2024-04-14T10:09:18.984Z,27.90
2024-04-14T10:11:47.956Z,27.93
2024-04-14T10:14:17.689Z,27.97
2024-04-14T10:17:01.327Z,27.98
2024-04-14T10:19:30.974Z,27.99
2024-04-14T10:22:03.450Z,27.93
2024-04-14T10:24:34.750Z,27.87
2024-04-14T10:27:18.678Z,27.84
2024-04-14T10:29:59.648Z,27.37
2024-04-14T10:32:28.430Z,27.10
2024-04-14T10:34:57.873Z,27.00
2024-04-14T10:37:31.747Z,27.00
2024-04-14T10:39:59.938Z,27.13
2024-04-14T10:42:29.607Z,27.00
2024-04-14T10:44:58.477Z,26.90
2024-04-14T10:47:27.413Z,26.93
2024-04-14T10:49:56.172Z,27.16
2024-04-14T10:52:25.054Z,26.99
2024-04-14T10:54:53.632Z,26.65
2024-04-14T10:57:21.861Z,26.86
2024-04-14T10:59:49.943Z,26.95
2024-04-14T11:02:18.234Z,26.88
2024-04-14T11:07:37.282Z,27.17
2024-04-14T11:10:07.597Z,27.52
2024-04-14T11:12:35.431Z,27.68
2024-04-14T11:15:06.921Z,27.68
2024-04-14T11:17:36.735Z,27.49
2024-04-14T11:20:06.039Z,27.59
2024-04-14T11:22:35.621Z,27.61
2024-04-14T11:25:10.605Z,27.69
2024-04-14T11:27:40.378Z,27.45
2024-04-14T11:30:18.604Z,27.49
2024-04-14T11:32:56.931Z,27.57
2024-04-14T11:35:24.090Z,27.73
2024-04-14T11:37:55.475Z,27.82
2024-04-14T11:40:25.192Z,27.80
2024-04-14T11:42:53.452Z,27.59
2024-04-14T11:45:21.932Z,27.45
2024-04-14T11:47:50.649Z,27.60
2024-04-14T11:50:18.831Z,27.82
2024-04-14T11:52:47.774Z,27.76
2024-04-14T11:55:16.705Z,27.73
2024-04-14T11:57:45.628Z,27.85
2024-04-14T12:00:13.493Z,27.82
2024-04-14T12:02:42.055Z,27.82
2024-04-14T12:05:10.291Z,27.77
2024-04-14T12:07:39.351Z,27.68
2024-04-14T12:10:06.871Z,27.70
2024-04-14T12:12:34.823Z,27.75
2024-04-14T12:15:05.431Z,27.77
2024-04-14T12:17:33.181Z,27.64
2024-04-14T12:20:00.917Z,27.64
2024-04-14T12:22:30.797Z,27.64
2024-04-14T12:24:59.275Z,27.65
2024-04-14T12:27:36.592Z,27.70
2024-04-14T12:30:05.144Z,27.82
2024-04-14T12:32:35.674Z,27.87
2024-04-14T12:35:03.955Z,28.08
2024-04-14T12:37:31.972Z,28.04
2024-04-14T12:40:04.054Z,28.02
2024-04-14T12:42:35.945Z,27.93
2024-04-14T12:45:04.193Z,28.03
2024-04-14T12:47:32.304Z,27.98
2024-04-14T12:50:03.879Z,27.97
2024-04-14T12:52:32.611Z,27.86
2024-04-14T12:55:00.953Z,27.72
2024-04-14T12:57:31.266Z,27.47
2024-04-14T13:00:02.477Z,27.57
2024-04-14T13:02:30.896Z,27.68
2024-04-14T13:04:59.423Z,27.46
2024-04-14T13:07:29.828Z,27.45
2024-04-14T13:09:57.953Z,27.52
2024-04-14T13:12:24.799Z,27.53
2024-04-14T13:15:02.310Z,27.51
2024-04-14T13:17:39.709Z,27.45
2024-04-14T13:20:15.133Z,27.28
2024-04-14T13:22:47.793Z,27.45
2024-04-14T13:25:16.205Z,27.61
2024-04-14T13:27:44.520Z,27.72
2024-04-14T13:30:13.081Z,27.63
2024-04-14T13:32:41.573Z,27.46
2024-04-14T13:35:10.573Z,27.20
2024-04-14T13:37:39.169Z,27.18
2024-04-14T13:40:09.606Z,27.20
2024-04-14T13:42:37.950Z,27.19
2024-04-14T13:45:18.202Z,27.32
2024-04-14T13:47:47.023Z,27.35
2024-04-14T13:50:15.961Z,27.13
2024-04-14T13:52:44.877Z,27.13
2024-04-14T13:55:25.242Z,27.08
2024-04-14T13:57:53.413Z,27.10
2024-04-14T14:00:23.877Z,26.95
2024-04-14T14:02:52.474Z,26.98
2024-04-14T14:05:23.764Z,26.99
2024-04-14T14:07:52.026Z,27.08
2024-04-14T14:10:20.041Z,27.11
2024-04-14T14:12:48.101Z,27.23
2024-04-14T14:15:17.153Z,27.36
2024-04-14T14:17:48.499Z,27.43
2024-04-14T14:20:15.485Z,27.56
2024-04-14T14:22:43.964Z,27.60
2024-04-14T14:25:15.767Z,27.67
2024-04-14T14:27:47.903Z,27.52
2024-04-14T14:30:16.450Z,27.36
2024-04-14T14:32:45.098Z,27.26
2024-04-14T14:35:35.211Z,27.11
2024-04-14T14:38:04.407Z,27.30
2024-04-14T14:40:33.910Z,27.34
2024-04-14T14:43:05.773Z,27.39
2024-04-14T14:45:34.786Z,27.42
2024-04-14T14:48:04.023Z,27.39
2024-04-14T14:50:33.268Z,27.47
2024-04-14T14:53:05.347Z,27.27
2024-04-14T14:55:34.185Z,27.26
2024-04-14T14:58:02.830Z,27.10
2024-04-14T15:00:30.959Z,26.98
2024-04-14T15:03:04.457Z,26.76
2024-04-14T15:05:32.828Z,26.61
2024-04-14T15:08:14.377Z,26.43
2024-04-14T15:10:53.100Z,26.42
2024-04-14T15:13:30.994Z,26.52
2024-04-14T15:16:13.366Z,26.52
2024-04-14T15:18:44.842Z,26.54
2024-04-14T15:21:13.285Z,26.56
2024-04-14T15:23:41.823Z,26.61
2024-04-14T15:26:10.577Z,26.42
2024-04-14T15:28:38.812Z,26.25
2024-04-14T15:31:07.767Z,26.15
2024-04-14T15:33:35.992Z,26.21
2024-04-14T15:36:09.336Z,25.83
2024-04-14T15:38:40.266Z,25.78
2024-04-14T15:41:08.291Z,25.72
2024-04-14T15:43:36.064Z,25.81
2024-04-14T15:46:06.852Z,25.82
2024-04-14T15:48:34.546Z,25.94
2024-04-14T15:51:13.600Z,25.86
2024-04-14T15:53:48.614Z,25.63
2024-04-14T15:56:17.146Z,25.59
2024-04-14T15:58:45.579Z,25.46
2024-04-14T16:01:14.243Z,25.34
2024-04-14T16:03:42.625Z,25.24
2024-04-14T16:06:24.872Z,25.02
2024-04-14T16:08:56.610Z,24.75
2024-04-14T16:11:27.709Z,24.62
2024-04-14T16:13:56.247Z,24.36
2024-04-14T16:16:24.746Z,24.09
2024-04-14T16:18:52.115Z,23.85
2024-04-14T16:21:20.836Z,23.61
2024-04-14T16:23:51.284Z,23.43
2024-04-14T16:26:19.968Z,23.24
2024-04-14T16:28:57.969Z,23.04
2024-04-14T16:31:26.257Z,22.82
2024-04-14T16:33:54.549Z,22.67
2024-04-14T16:36:23.819Z,22.47
2024-04-14T16:38:52.683Z,22.17
2024-04-14T16:41:23.621Z,22.07
2024-04-14T16:44:04.957Z,21.89
2024-04-14T16:46:44.455Z,21.71
2024-04-14T16:49:33.591Z,21.50
2024-04-14T16:52:23.782Z,21.29
2024-04-14T16:54:52.613Z,21.04
2024-04-14T16:57:25.000Z,20.84
2024-04-14T16:59:58.189Z,20.70
2024-04-14T17:02:27.495Z,20.57
2024-04-14T17:04:57.207Z,20.37
2024-04-14T17:07:24.211Z,20.26
2024-04-14T17:09:53.920Z,20.14
2024-04-14T17:12:30.004Z,20.02
2024-04-14T17:14:59.397Z,19.85
2024-04-14T17:17:48.755Z,19.71
2024-04-14T17:20:20.555Z,19.58
2024-04-14T17:22:49.226Z,19.37
2024-04-14T17:25:23.411Z,19.16
2024-04-14T17:27:51.863Z,19.02
2024-04-14T17:30:19.721Z,18.91
2024-04-14T17:32:48.289Z,18.79
2024-04-14T17:35:20.441Z,18.70
2024-04-14T17:37:57.728Z,18.60
2024-04-14T17:40:26.386Z,18.50
2024-04-14T17:43:00.925Z,18.37
2024-04-14T17:45:31.571Z,18.18
2024-04-14T17:48:04.859Z,18.07
2024-04-14T17:50:34.657Z,17.94
2024-04-14T17:53:24.478Z,17.82
2024-04-14T17:55:56.909Z,17.72
2024-04-14T17:58:37.161Z,17.63
2024-04-14T18:01:06.246Z,17.57
2024-04-14T18:03:37.508Z,17.47
2024-04-14T18:06:06.435Z,17.44
2024-04-14T18:08:35.868Z,17.38
2024-04-14T18:11:04.189Z,17.21
2024-04-14T18:16:21.392Z,17.03
2024-04-14T18:18:58.796Z,16.96
2024-04-14T18:21:26.664Z,16.85
2024-04-14T18:23:54.928Z,16.82
2024-04-14T18:26:23.387Z,16.74
2024-04-14T18:28:52.194Z,16.59
2024-04-14T18:31:20.280Z,16.54
2024-04-14T18:33:51.789Z,16.46
2024-04-14T18:36:19.877Z,16.41
2024-04-14T18:38:48.682Z,16.33
2024-04-14T18:41:16.632Z,16.25
2024-04-14T18:43:45.216Z,16.18
2024-04-14T18:46:13.330Z,16.07
2024-04-14T18:48:41.957Z,15.97
2024-04-14T18:51:09.894Z,15.94
2024-04-14T18:53:37.729Z,15.93
2024-04-14T18:56:07.928Z,15.88
2024-04-14T18:58:38.619Z,15.82
2024-04-14T19:01:07.332Z,15.79
2024-04-14T19:03:35.707Z,15.77
2024-04-14T19:06:08.140Z,15.68
2024-04-14T19:08:45.164Z,15.57
2024-04-14T19:11:13.725Z,15.53
2024-04-14T19:13:41.980Z,15.49
2024-04-14T19:16:10.426Z,15.47
2024-04-14T19:18:42.186Z,15.46
2024-04-14T19:21:10.626Z,15.50
2024-04-14T19:23:39.152Z,15.36
2024-04-14T19:26:28.061Z,15.09
2024-04-14T19:28:57.295Z,14.99
2024-04-14T19:31:25.563Z,14.84
2024-04-14T19:33:53.448Z,14.83
2024-04-14T19:36:21.692Z,14.82
2024-04-14T19:38:50.234Z,14.84
2024-04-14T19:41:20.151Z,14.86
2024-04-14T19:43:50.325Z,14.86
2024-04-14T19:46:20.624Z,14.82
2024-04-14T19:48:49.213Z,14.77
2024-04-14T19:51:17.999Z,14.69
2024-04-14T19:53:49.593Z,14.66
2024-04-14T19:56:20.861Z,14.60
2024-04-14T19:58:48.692Z,14.56
2024-04-14T20:01:17.029Z,14.52
2024-04-14T20:04:04.294Z,14.47
2024-04-14T20:06:32.727Z,14.50
2024-04-14T20:09:01.005Z,14.44
2024-04-14T20:11:29.360Z,14.37
2024-04-14T20:13:57.675Z,14.25
2024-04-14T20:16:26.301Z,14.26
2024-04-14T20:19:01.368Z,14.14
2024-04-14T20:21:31.420Z,14.06
2024-04-14T20:24:03.345Z,14.03
2024-04-14T20:27:23.405Z,14.01
2024-04-14T20:30:07.150Z,13.98
2024-04-14T20:32:35.603Z,13.89
2024-04-14T20:35:05.029Z,13.83
2024-04-14T20:37:37.401Z,13.77
2024-04-14T20:40:16.543Z,13.81
2024-04-14T20:42:44.914Z,13.70
2024-04-14T20:45:16.116Z,13.73
2024-04-14T20:47:44.261Z,13.73
2024-04-14T20:50:13.647Z,13.68
2024-04-14T20:52:42.156Z,13.62
2024-04-14T20:55:11.436Z,13.64
2024-04-14T20:57:50.275Z,13.62
2024-04-14T21:00:22.610Z,13.67
2024-04-14T21:02:56.676Z,13.56
2024-04-14T21:05:26.134Z,13.48
2024-04-14T21:07:54.421Z,13.37
2024-04-14T21:10:22.958Z,13.43
2024-04-14T21:12:51.626Z,13.48
2024-04-14T21:15:24.675Z,13.50
2024-04-14T21:17:56.173Z,13.48
2024-04-14T21:20:26.192Z,13.50
2024-04-14T21:23:08.705Z,13.49
2024-04-14T21:25:36.708Z,13.49
2024-04-14T21:28:08.190Z,13.44
2024-04-14T21:30:42.917Z,13.32
2024-04-14T21:33:14.579Z,13.35
2024-04-14T21:35:43.387Z,13.34
2024-04-14T21:41:18.785Z,13.19
2024-04-14T21:43:50.359Z,13.14
2024-04-14T21:46:19.058Z,13.03
2024-04-14T21:48:56.801Z,13.00
2024-04-14T21:51:25.438Z,13.00
2024-04-14T21:53:54.251Z,12.98
2024-04-14T21:56:26.558Z,12.96
2024-04-14T21:58:56.250Z,12.92
2024-04-14T22:01:25.496Z,12.91
2024-04-14T22:04:05.145Z,12.89
2024-04-14T22:06:45.509Z,12.76
2024-04-14T22:09:21.306Z,12.66
2024-04-14T22:11:50.375Z,12.65
2024-04-14T22:14:21.603Z,12.66
2024-04-14T22:17:00.160Z,12.64
2024-04-14T22:19:29.087Z,12.55
2024-04-14T22:22:06.891Z,12.52
2024-04-14T22:24:36.039Z,12.43
2024-04-14T22:27:14.323Z,12.38
2024-04-14T22:29:43.018Z,12.39
2024-04-14T22:32:19.243Z,12.41
2024-04-14T22:34:48.050Z,12.40
2024-04-14T22:37:17.021Z,12.38
2024-04-14T22:39:55.983Z,12.30
2024-04-14T22:42:27.937Z,12.22
2024-04-14T22:44:56.855Z,12.21
2024-04-14T22:47:25.559Z,12.19
2024-04-14T22:50:24.192Z,12.18
2024-04-14T22:52:52.835Z,12.13
2024-04-14T22:58:06.014Z,12.00
2024-04-14T23:00:37.497Z,12.01
2024-04-14T23:03:15.060Z,11.97
2024-04-14T23:05:42.204Z,11.86
2024-04-14T23:08:09.124Z,11.91
2024-04-14T23:10:36.136Z,11.89
2024-04-14T23:13:03.662Z,11.89
2024-04-14T23:15:31.259Z,11.86
2024-04-14T23:17:58.406Z,11.78
2024-04-14T23:20:25.623Z,11.82
2024-04-14T23:22:53.034Z,11.74
2024-04-14T23:25:20.013Z,11.56
2024-04-14T23:27:47.260Z,11.54
2024-04-14T23:30:14.200Z,11.57
2024-04-14T23:32:41.190Z,11.53
2024-04-14T23:35:11.076Z,11.53
2024-04-14T23:37:37.959Z,11.54
2024-04-14T23:40:05.623Z,11.51
2024-04-14T23:42:32.689Z,11.47
2024-04-14T23:44:59.610Z,11.40
2024-04-14T23:47:26.590Z,11.49
2024-04-14T23:49:53.657Z,11.49
2024-04-14T23:52:21.172Z,11.48
2024-04-14T23:54:48.478Z,11.47
2024-04-14T23:57:15.483Z,11.42
2024-04-14T23:59:42.520Z,11.38
